createdAt,value
2022-08-12T00:02:45.389Z,18.25
2022-08-12T00:05:32.196Z,18.24
2022-08-12T00:08:17.616Z,18.21
2022-08-12T00:11:18.380Z,18.08
2022-08-12T00:14:03.779Z,18.03
2022-08-12T00:16:49.148Z,17.90
2022-08-12T00:19:34.704Z,17.96
2022-08-12T00:22:20.601Z,17.77
2022-08-12T00:25:06.357Z,17.69
2022-08-12T00:27:51.930Z,17.67
2022-08-12T00:30:37.577Z,17.20
2022-08-12T00:33:22.819Z,17.31
2022-08-12T00:36:17.811Z,17.47
2022-08-12T00:39:17.902Z,17.50
2022-08-12T00:42:04.997Z,17.45
2022-08-12T00:44:31.612Z,17.19
2022-08-12T00:47:00.666Z,17.16
2022-08-12T00:49:29.416Z,17.24
2022-08-12T00:52:07.465Z,17.31
2022-08-12T00:54:43.588Z,17.30
2022-08-12T00:57:22.198Z,17.19
2022-08-12T01:00:20.973Z,17.09
2022-08-12T01:02:52.415Z,17.17
2022-08-12T01:05:40.676Z,17.27
2022-08-12T01:08:27.187Z,17.00
2022-08-12T01:11:14.032Z,16.95
2022-08-12T01:13:45.045Z,16.92
2022-08-12T01:16:12.288Z,16.85
2022-08-12T01:18:40.391Z,16.82
2022-08-12T01:21:12.468Z,16.83
2022-08-12T01:23:55.822Z,16.62
2022-08-12T01:26:24.848Z,16.58
2022-08-12T01:28:59.478Z,16.51
2022-08-12T01:31:29.452Z,16.46
2022-08-12T01:34:35.371Z,16.53
2022-08-12T01:37:00.992Z,16.64
2022-08-12T01:39:33.827Z,16.51
2022-08-12T01:42:05.564Z,16.24
2022-08-12T01:44:33.237Z,16.46
2022-08-12T01:47:43.369Z,16.46
2022-08-12T01:50:30.382Z,16.48
2022-08-12T01:53:18.867Z,16.47
2022-08-12T01:55:47.705Z,16.24
2022-08-12T01:58:56.170Z,16.22
2022-08-12T02:01:34.645Z,16.07
2022-08-12T02:04:36.658Z,16.13
2022-08-12T02:07:53.521Z,16.11
2022-08-12T02:10:56.919Z,16.03
2022-08-12T02:13:49.695Z,15.97
2022-08-12T02:16:54.186Z,16.05
2022-08-12T02:19:50.712Z,15.94
2022-08-12T02:22:38.540Z,15.89
2022-08-12T02:25:15.829Z,15.89
2022-08-12T02:27:48.519Z,15.94
2022-08-12T02:30:23.906Z,15.90
2022-08-12T02:32:54.800Z,15.95
2022-08-12T02:35:26.781Z,15.89
2022-08-12T02:37:57.491Z,15.89
2022-08-12T02:40:26.890Z,15.75
2022-08-12T02:43:04.546Z,15.73
2022-08-12T02:45:43.171Z,15.74
2022-08-12T02:48:11.376Z,15.66
2022-08-12T02:50:42.831Z,15.66
2022-08-12T02:53:10.878Z,15.52
2022-08-12T02:55:37.740Z,15.60
2022-08-12T02:58:09.262Z,15.51
2022-08-12T03:00:41.411Z,15.45
2022-08-12T03:03:11.441Z,15.27
2022-08-12T03:05:52.422Z,15.36
2022-08-12T03:08:32.602Z,15.41
2022-08-12T03:11:06.207Z,15.40
2022-08-12T03:13:42.104Z,15.41
2022-08-12T03:16:08.980Z,15.40
2022-08-12T03:18:36.116Z,15.26
2022-08-12T03:21:03.333Z,15.24
2022-08-12T03:23:31.197Z,15.16
2022-08-12T03:26:02.881Z,15.18
2022-08-12T03:28:50.914Z,15.15
2022-08-12T03:31:24.817Z,15.11
2022-08-12T03:34:02.165Z,15.13
2022-08-12T03:36:31.829Z,15.07
2022-08-12T03:39:38.213Z,15.13
2022-08-12T03:42:17.170Z,14.95
2022-08-12T03:45:15.830Z,15.01
2022-08-12T03:48:26.388Z,14.93
2022-08-12T03:51:12.865Z,14.85
2022-08-12T03:53:59.239Z,14.84
2022-08-12T03:56:44.555Z,14.77
2022-08-12T03:59:30.639Z,14.84
2022-08-12T04:01:58.511Z,14.70
2022-08-12T04:04:36.281Z,14.72
2022-08-12T04:07:08.285Z,14.58
2022-08-12T04:09:38.347Z,14.58
2022-08-12T04:12:26.149Z,14.48
2022-08-12T04:14:54.359Z,14.54
2022-08-12T04:17:22.019Z,14.58
2022-08-12T04:19:49.615Z,14.51
2022-08-12T04:22:16.860Z,14.48
2022-08-12T04:24:47.688Z,14.44
2022-08-12T04:27:17.398Z,14.51
2022-08-12T04:30:17.220Z,14.54
2022-08-12T04:32:32.275Z,14.58
2022-08-12T04:34:59.196Z,14.51
2022-08-12T04:37:26.188Z,14.52
2022-08-12T04:39:54.446Z,14.53
2022-08-12T04:42:21.933Z,14.54
2022-08-12T04:44:49.122Z,14.58
2022-08-12T04:47:17.092Z,14.60
2022-08-12T04:49:45.430Z,14.67
2022-08-12T04:52:12.740Z,14.69
2022-08-12T04:54:44.149Z,14.64
2022-08-12T04:57:11.087Z,14.72
2022-08-12T04:59:46.483Z,14.71
2022-08-12T05:02:21.036Z,14.81
2022-08-12T05:04:51.314Z,14.83
2022-08-12T05:07:18.260Z,14.84
2022-08-12T05:09:59.276Z,14.92
2022-08-12T05:12:37.417Z,14.98
2022-08-12T05:15:19.797Z,15.09
2022-08-12T05:17:53.578Z,15.14
2022-08-12T05:20:22.958Z,15.24
2022-08-12T05:22:56.967Z,15.30
2022-08-12T05:25:25.393Z,15.47
2022-08-12T05:27:58.345Z,15.55
2022-08-12T05:30:27.121Z,15.46
2022-08-12T05:32:58.977Z,15.52
2022-08-12T05:35:28.122Z,15.68
2022-08-12T05:38:14.876Z,15.67
2022-08-12T05:40:42.229Z,15.79
2022-08-12T05:43:09.322Z,15.89
2022-08-12T05:45:39.351Z,15.94
2022-08-12T05:48:09.747Z,16.03
2022-08-12T05:50:36.541Z,16.09
2022-08-12T05:53:03.590Z,16.14
2022-08-12T05:55:31.515Z,16.24
2022-08-12T05:57:59.123Z,16.22
2022-08-12T06:00:26.375Z,16.36
2022-08-12T06:03:01.446Z,16.51
2022-08-12T06:05:52.734Z,16.57
2022-08-12T06:08:22.961Z,16.66
2022-08-12T06:10:50.662Z,16.77
2022-08-12T06:13:28.355Z,16.97
2022-08-12T06:16:07.538Z,17.00
2022-08-12T06:18:34.508Z,17.17
2022-08-12T06:21:02.028Z,17.31
2022-08-12T06:23:30.147Z,17.38
2022-08-12T06:25:57.853Z,17.47
2022-08-12T06:28:25.119Z,17.57
2022-08-12T06:33:57.858Z,17.85
2022-08-12T06:36:33.574Z,17.86
2022-08-12T06:39:00.674Z,18.06
2022-08-12T06:42:31.354Z,18.28
2022-08-12T06:44:33.019Z,18.47
2022-08-12T06:47:00.207Z,18.64
2022-08-12T06:49:28.480Z,18.69
2022-08-12T06:51:56.822Z,18.87
2022-08-12T06:54:31.305Z,19.06
2022-08-12T06:58:08.208Z,19.21
2022-08-12T06:59:45.948Z,19.43
2022-08-12T07:02:13.372Z,19.55
2022-08-12T07:04:40.790Z,19.67
2022-08-12T07:07:09.224Z,19.83
2022-08-12T07:10:03.624Z,19.89
2022-08-12T07:12:28.083Z,20.05
2022-08-12T07:15:02.131Z,20.17
2022-08-12T07:17:36.429Z,20.30
2022-08-12T07:20:10.004Z,20.46
2022-08-12T07:22:37.752Z,20.66
2022-08-12T07:25:23.536Z,20.71
2022-08-12T07:27:53.978Z,20.99
2022-08-12T07:30:20.916Z,21.20
2022-08-12T07:32:51.775Z,21.42
2022-08-12T07:35:19.851Z,21.58
2022-08-12T07:37:47.667Z,21.64
2022-08-12T07:40:15.591Z,21.86
2022-08-12T07:42:44.164Z,21.97
2022-08-12T07:45:12.438Z,22.22
2022-08-12T07:47:43.663Z,22.47
2022-08-12T07:50:17.856Z,22.63
2022-08-12T07:52:48.665Z,22.73
2022-08-12T07:55:16.925Z,22.85
2022-08-12T07:57:57.971Z,23.02
2022-08-12T08:00:31.668Z,23.15
2022-08-12T08:02:59.062Z,23.30
2022-08-12T08:05:29.046Z,23.49
2022-08-12T08:08:02.566Z,23.46
2022-08-12T08:10:30.689Z,23.62
2022-08-12T08:12:59.642Z,23.73
2022-08-12T08:16:00.794Z,23.80
2022-08-12T08:18:26.826Z,24.06
2022-08-12T08:20:55.203Z,24.32
2022-08-12T08:23:21.919Z,24.43
2022-08-12T08:25:56.735Z,24.57
2022-08-12T08:28:23.388Z,24.74
2022-08-12T08:30:50.461Z,24.89
2022-08-12T08:33:23.641Z,24.95
2022-08-12T08:36:07.683Z,25.10
2022-08-12T08:38:57.680Z,25.15
2022-08-12T08:42:15.210Z,25.19
2022-08-12T08:44:32.209Z,25.29
2022-08-12T08:47:05.770Z,25.31
2022-08-12T08:49:35.175Z,25.28
2022-08-12T08:52:06.284Z,25.50
2022-08-12T08:54:34.287Z,25.50
2022-08-12T08:57:02.777Z,25.56
2022-08-12T08:59:30.438Z,25.78
2022-08-12T09:01:57.460Z,25.79
2022-08-12T09:05:12.524Z,25.81
2022-08-12T09:07:16.731Z,26.02
2022-08-12T09:10:02.419Z,26.07
2022-08-12T09:12:54.698Z,26.04
2022-08-12T09:18:12.225Z,26.33
2022-08-12T09:20:42.392Z,26.47
2022-08-12T09:23:59.788Z,26.44
2022-08-12T09:26:03.971Z,26.57
2022-08-12T09:28:33.676Z,26.54
2022-08-12T09:31:00.535Z,26.54
2022-08-12T09:34:27.833Z,26.63
2022-08-12T09:36:31.101Z,26.62
2022-08-12T09:40:03.264Z,26.70
2022-08-12T09:42:39.129Z,26.59
2022-08-12T09:45:24.668Z,26.78
2022-08-12T09:48:10.048Z,26.90
2022-08-12T09:50:55.076Z,26.76
2022-08-12T09:53:29.458Z,26.73
2022-08-12T09:56:58.968Z,26.59
2022-08-12T09:58:59.879Z,26.79
2022-08-12T10:01:35.296Z,27.00
2022-08-12T10:04:19.872Z,27.01
2022-08-12T10:06:54.672Z,26.92
2022-08-12T10:09:28.959Z,27.12
2022-08-12T10:12:34.700Z,27.00
2022-08-12T10:15:04.957Z,26.99
2022-08-12T10:17:34.925Z,27.11
2022-08-12T10:20:24.952Z,27.04
2022-08-12T10:23:01.951Z,27.22
2022-08-12T10:26:34.916Z,27.24
2022-08-12T10:29:02.475Z,27.26
2022-08-12T10:32:20.086Z,27.20
2022-08-12T10:34:27.855Z,27.08
2022-08-12T10:37:22.771Z,27.19
2022-08-12T10:40:07.380Z,27.34
2022-08-12T10:43:00.484Z,27.51
2022-08-12T10:45:38.051Z,27.73
2022-08-12T10:48:21.219Z,27.76
2022-08-12T10:50:58.301Z,27.70
2022-08-12T10:53:46.040Z,27.78
2022-08-12T10:56:17.800Z,27.93
2022-08-12T10:58:46.785Z,27.67
2022-08-12T11:01:48.856Z,27.63
2022-08-12T11:04:28.474Z,27.78
2022-08-12T11:07:05.444Z,27.98
2022-08-12T11:10:00.936Z,27.99
2022-08-12T11:12:56.933Z,28.09
2022-08-12T11:15:24.384Z,28.04
2022-08-12T11:18:03.272Z,27.88
2022-08-12T11:20:31.422Z,27.86
2022-08-12T11:23:04.164Z,27.85
2022-08-12T11:25:57.949Z,27.83
2022-08-12T11:28:34.709Z,27.91
2022-08-12T11:31:07.324Z,28.14
2022-08-12T11:34:06.235Z,28.08
2022-08-12T11:36:28.448Z,28.04
2022-08-12T11:38:57.700Z,28.21
2022-08-12T11:41:31.823Z,28.26
2022-08-12T11:44:35.044Z,28.18
2022-08-12T11:46:53.704Z,28.12
2022-08-12T11:49:30.582Z,28.28
2022-08-12T11:52:01.100Z,28.24
2022-08-12T11:54:30.073Z,28.34
2022-08-12T11:57:02.400Z,28.60
2022-08-12T12:02:21.692Z,28.41
2022-08-12T12:04:53.111Z,28.32
2022-08-12T12:08:36.702Z,28.71
2022-08-12T12:10:17.951Z,28.88
2022-08-12T12:12:49.434Z,28.90
2022-08-12T12:15:25.299Z,28.92
2022-08-12T12:18:08.240Z,28.88
2022-08-12T12:20:40.132Z,28.69
2022-08-12T12:23:28.879Z,28.88
2022-08-12T12:26:07.138Z,29.10
2022-08-12T12:28:40.841Z,29.09
2022-08-12T12:32:10.164Z,29.09
2022-08-12T12:34:11.946Z,28.99
2022-08-12T12:36:58.203Z,28.98
2022-08-12T12:39:28.168Z,28.91
2022-08-12T12:42:42.725Z,29.05
2022-08-12T12:44:53.420Z,28.99
2022-08-12T12:47:28.657Z,29.22
2022-08-12T12:49:59.317Z,29.16
2022-08-12T12:52:28.563Z,29.23
2022-08-12T12:54:59.230Z,29.20
2022-08-12T12:57:59.759Z,29.23
2022-08-12T13:00:18.493Z,29.01
2022-08-12T13:02:56.024Z,29.02
2022-08-12T13:05:27.895Z,29.10
2022-08-12T13:08:00.686Z,28.86
2022-08-12T13:10:30.982Z,29.13
2022-08-12T13:14:10.082Z,29.17
2022-08-12T13:16:01.852Z,29.35
2022-08-12T13:18:31.853Z,29.23
2022-08-12T13:20:59.883Z,29.11
2022-08-12T13:23:37.328Z,29.39
2022-08-12T13:26:04.662Z,29.51
2022-08-12T13:28:33.361Z,29.54
2022-08-12T13:31:05.352Z,29.58
2022-08-12T13:33:48.535Z,29.55
2022-08-12T13:36:25.524Z,29.50
2022-08-12T13:38:54.649Z,29.51
2022-08-12T13:41:36.935Z,29.52
2022-08-12T13:44:10.622Z,29.64
2022-08-12T13:46:41.237Z,29.71
2022-08-12T13:49:17.708Z,29.53
2022-08-12T13:52:06.350Z,29.51
2022-08-12T13:54:37.198Z,29.69
2022-08-12T13:57:10.930Z,29.54
2022-08-12T13:59:48.774Z,29.57
2022-08-12T14:02:25.371Z,29.40
2022-08-12T14:04:56.351Z,29.37
2022-08-12T14:07:28.595Z,29.06
2022-08-12T14:10:31.780Z,29.51
2022-08-12T14:13:05.313Z,29.66
2022-08-12T14:15:47.836Z,29.83
2022-08-12T14:18:18.556Z,29.66
2022-08-12T14:20:48.905Z,29.59
2022-08-12T14:24:05.206Z,29.78
2022-08-12T14:26:15.087Z,29.75
2022-08-12T14:28:57.556Z,29.73
2022-08-12T14:31:31.382Z,29.75
2022-08-12T14:33:59.973Z,29.75
2022-08-12T14:36:29.479Z,29.80
2022-08-12T14:39:01.348Z,29.92
2022-08-12T14:41:37.269Z,29.56
2022-08-12T14:44:58.107Z,29.48
2022-08-12T14:47:07.550Z,29.74
2022-08-12T14:50:37.020Z,29.58
2022-08-12T14:53:15.412Z,29.84
2022-08-12T14:58:03.178Z,29.86
2022-08-12T15:00:52.477Z,29.93
2022-08-12T15:03:52.565Z,29.72
2022-08-12T15:06:44.666Z,29.76
2022-08-12T15:09:12.848Z,29.88
2022-08-12T15:11:54.925Z,30.03
2022-08-12T15:14:30.393Z,29.82
2022-08-12T15:17:02.183Z,29.77
2022-08-12T15:20:27.961Z,29.64
2022-08-12T15:22:35.298Z,29.65
2022-08-12T15:25:09.603Z,29.63
2022-08-12T15:28:20.402Z,29.55
2022-08-12T15:30:32.124Z,29.28
2022-08-12T15:33:00.505Z,29.42
2022-08-12T15:35:53.128Z,29.49
2022-08-12T15:38:31.527Z,29.62
2022-08-12T15:41:02.116Z,29.84
2022-08-12T15:43:51.626Z,29.69
2022-08-12T15:46:25.551Z,29.57
2022-08-12T15:48:53.902Z,29.61
2022-08-12T15:51:59.417Z,29.75
2022-08-12T15:54:35.144Z,29.73
2022-08-12T15:57:16.999Z,29.67
2022-08-12T16:00:00.252Z,29.59
2022-08-12T16:02:50.084Z,29.52
2022-08-12T16:06:11.527Z,29.56
2022-08-12T16:08:19.704Z,29.63
2022-08-12T16:10:53.398Z,29.57
2022-08-12T16:13:32.821Z,29.32
2022-08-12T16:16:23.140Z,29.43
2022-08-12T16:18:56.054Z,29.23
2022-08-12T16:21:52.654Z,29.22
2022-08-12T16:24:15.420Z,29.32
2022-08-12T16:26:45.207Z,29.42
2022-08-12T16:29:24.955Z,29.07
2022-08-12T16:31:55.477Z,29.08
2022-08-12T16:34:42.340Z,29.11
2022-08-12T16:37:14.680Z,29.04
2022-08-12T16:39:59.893Z,29.27
2022-08-12T16:42:29.338Z,29.11
2022-08-12T16:45:02.761Z,28.99
2022-08-12T16:47:57.527Z,29.00
2022-08-12T16:50:21.026Z,28.53
2022-08-12T16:53:02.105Z,28.70
2022-08-12T16:55:41.902Z,28.43
2022-08-12T16:58:27.976Z,28.27
2022-08-12T17:00:55.722Z,28.25
2022-08-12T17:03:28.942Z,28.16
2022-08-12T17:06:00.010Z,28.10
2022-08-12T17:08:29.141Z,28.20
2022-08-12T17:10:57.238Z,27.99
2022-08-12T17:13:27.169Z,27.88
2022-08-12T17:16:06.323Z,27.90
2022-08-12T17:18:57.035Z,27.81
2022-08-12T17:21:41.178Z,27.62
2022-08-12T17:24:21.614Z,27.53
2022-08-12T17:26:51.887Z,27.62
2022-08-12T17:29:32.129Z,27.40
2022-08-12T17:32:11.707Z,27.34
2022-08-12T17:35:00.156Z,27.28
2022-08-12T17:37:28.239Z,27.20
2022-08-12T17:40:12.383Z,27.19
2022-08-12T17:42:47.627Z,27.12
2022-08-12T17:45:20.787Z,27.13
2022-08-12T17:48:00.780Z,27.01
2022-08-12T17:50:50.443Z,26.90
2022-08-12T17:53:22.084Z,26.87
2022-08-12T17:55:51.844Z,26.76
2022-08-12T17:58:37.373Z,26.66
2022-08-12T18:01:11.251Z,26.68
2022-08-12T18:04:05.144Z,26.67
2022-08-12T18:06:28.537Z,26.67
2022-08-12T18:08:59.326Z,26.65
2022-08-12T18:12:04.781Z,26.55
2022-08-12T18:14:37.019Z,26.40
2022-08-12T18:17:08.205Z,26.39
2022-08-12T18:20:05.169Z,26.33
2022-08-12T18:22:31.706Z,26.21
2022-08-12T18:25:03.828Z,26.08
2022-08-12T18:27:43.840Z,26.13
2022-08-12T18:30:20.331Z,26.08
2022-08-12T18:32:54.166Z,26.01
2022-08-12T18:35:47.927Z,25.84
2022-08-12T18:38:22.450Z,25.85
2022-08-12T18:41:10.823Z,25.74
2022-08-12T18:44:00.279Z,25.72
2022-08-12T18:46:56.036Z,25.67
2022-08-12T18:49:39.598Z,25.55
2022-08-12T18:52:11.933Z,25.49
2022-08-12T18:54:49.239Z,25.48
2022-08-12T18:58:06.151Z,25.47
2022-08-12T19:00:20.969Z,25.29
2022-08-12T19:02:53.946Z,25.29
2022-08-12T19:05:53.228Z,25.18
2022-08-12T19:08:15.503Z,25.05
2022-08-12T19:10:50.622Z,25.05
2022-08-12T19:13:50.589Z,25.02
2022-08-12T19:16:23.836Z,24.97
2022-08-12T19:18:53.163Z,24.93
2022-08-12T19:21:20.915Z,24.96
2022-08-12T19:24:13.642Z,24.94
2022-08-12T19:26:43.548Z,25.00
2022-08-12T19:29:15.591Z,24.89
2022-08-12T19:31:58.318Z,24.79
2022-08-12T19:36:06.981Z,24.67
2022-08-12T19:38:04.366Z,24.56
2022-08-12T19:40:31.181Z,24.50
2022-08-12T19:43:17.806Z,24.32
2022-08-12T19:45:52.254Z,24.30
2022-08-12T19:48:24.277Z,24.21
2022-08-12T19:50:55.890Z,24.23
2022-08-12T19:53:27.637Z,24.15
2022-08-12T19:55:57.135Z,24.10
2022-08-12T19:58:26.723Z,24.03
2022-08-12T20:00:55.584Z,23.99
2022-08-12T20:03:39.320Z,23.98
2022-08-12T20:06:13.959Z,23.61
2022-08-12T20:08:48.997Z,23.68
2022-08-12T20:12:14.441Z,23.67
2022-08-12T20:14:19.821Z,23.23
2022-08-12T20:16:57.906Z,23.16
2022-08-12T20:20:05.522Z,23.29
2022-08-12T20:22:29.846Z,23.04
2022-08-12T20:25:01.060Z,23.05
2022-08-12T20:28:03.281Z,23.06
2022-08-12T20:33:17.439Z,22.56
2022-08-12T20:36:13.948Z,22.75
2022-08-12T20:38:40.593Z,22.61
2022-08-12T20:41:16.266Z,22.42
2022-08-12T20:43:50.734Z,22.39
2022-08-12T20:46:21.953Z,22.34
2022-08-12T20:48:54.872Z,22.28
2022-08-12T20:51:27.575Z,22.45
2022-08-12T20:53:58.744Z,22.35
2022-08-12T20:56:35.506Z,22.32
2022-08-12T20:59:11.064Z,22.20
2022-08-12T21:01:47.904Z,21.99
2022-08-12T21:04:36.769Z,21.90
2022-08-12T21:07:09.818Z,21.94
2022-08-12T21:09:51.971Z,21.88
2022-08-12T21:12:31.144Z,21.71
2022-08-12T21:15:24.048Z,21.70
2022-08-12T21:18:10.714Z,21.60
2022-08-12T21:20:55.820Z,21.49
2022-08-12T21:23:23.980Z,21.49
2022-08-12T21:25:56.449Z,21.38
2022-08-12T21:28:27.597Z,21.25
2022-08-12T21:32:35.120Z,21.28
2022-08-12T21:34:08.088Z,21.35
2022-08-12T21:36:48.290Z,21.17
2022-08-12T21:39:35.050Z,20.76
2022-08-12T21:42:06.988Z,21.12
2022-08-12T21:45:46.020Z,20.84
2022-08-12T21:47:29.960Z,20.82
2022-08-12T21:50:06.512Z,20.80
2022-08-12T21:52:37.470Z,20.87
2022-08-12T21:55:18.019Z,20.70
2022-08-12T21:57:53.374Z,20.68
2022-08-12T22:00:32.327Z,20.68
2022-08-12T22:04:04.396Z,20.67
2022-08-12T22:06:31.529Z,20.55
2022-08-12T22:09:17.262Z,20.52
2022-08-12T22:11:58.726Z,20.55
2022-08-12T22:14:29.809Z,20.39
2022-08-12T22:17:00.506Z,20.38
2022-08-12T22:19:29.199Z,20.46
2022-08-12T22:22:03.982Z,20.26
2022-08-12T22:24:34.197Z,20.14
2022-08-12T22:27:17.912Z,20.04
2022-08-12T22:30:11.241Z,19.93
2022-08-12T22:32:49.972Z,19.98
2022-08-12T22:35:56.639Z,19.90
2022-08-12T22:38:20.295Z,19.77
2022-08-12T22:40:49.490Z,19.76
2022-08-12T22:43:37.797Z,19.71
2022-08-12T22:46:53.530Z,19.70
2022-08-12T22:49:36.428Z,19.64
2022-08-12T22:52:12.245Z,19.47
2022-08-12T22:54:58.053Z,19.45
2022-08-12T22:57:54.401Z,19.40
2022-08-12T23:00:24.689Z,19.29
2022-08-12T23:03:02.637Z,19.29
2022-08-12T23:05:56.719Z,19.27
2022-08-12T23:08:22.652Z,19.16
2022-08-12T23:10:50.401Z,19.07
2022-08-12T23:13:42.878Z,19.05
2022-08-12T23:16:28.085Z,18.92
2022-08-12T23:18:59.704Z,18.78
2022-08-12T23:21:40.167Z,18.86
2022-08-12T23:24:17.431Z,18.73
2022-08-12T23:27:05.380Z,18.50
2022-08-12T23:29:43.172Z,18.61
2022-08-12T23:32:36.684Z,18.68
2022-08-12T23:35:03.558Z,18.64
2022-08-12T23:37:47.374Z,18.67
2022-08-12T23:40:22.223Z,18.69
2022-08-12T23:42:58.489Z,18.68
2022-08-12T23:45:31.460Z,18.66
2022-08-12T23:48:03.187Z,18.74
2022-08-12T23:50:34.125Z,18.75
2022-08-12T23:53:17.021Z,18.70
2022-08-12T23:55:50.758Z,18.36
2022-08-12T23:58:25.810Z,18.26
